sensor_id;sensor_type;location;lat;lon;timestamp;temperature;humidity
2012;DHT22;1009;51.436;6.972;2022-09-14T00:00:46;18.50;99.90
2012;DHT22;1009;51.436;6.972;2022-09-14T00:03:15;18.50;99.90
2012;DHT22;1009;51.436;6.972;2022-09-14T00:05:41;18.60;99.90
2012;DHT22;1009;51.436;6.972;2022-09-14T00:08:09;18.60;99.90
2012;DHT22;1009;51.436;6.972;2022-09-14T00:10:38;18.60;99.90
2012;DHT22;1009;51.436;6.972;2022-09-14T00:13:05;18.60;99.90
2012;DHT22;1009;51.436;6.972;2022-09-14T00:15:34;18.60;99.90
2012;DHT22;1009;51.436;6.972;2022-09-14T00:18:01;18.60;99.90
2012;DHT22;1009;51.436;6.972;2022-09-14T00:20:30;18.50;99.90
2012;DHT22;1009;51.436;6.972;2022-09-14T00:22:57;18.30;99.90
2012;DHT22;1009;51.436;6.972;2022-09-14T00:25:24;18.40;99.90
2012;DHT22;1009;51.436;6.972;2022-09-14T00:27:51;18.40;99.90
2012;DHT22;1009;51.436;6.972;2022-09-14T00:30:18;18.40;99.90
2012;DHT22;1009;51.436;6.972;2022-09-14T00:32:45;18.30;99.90
2012;DHT22;1009;51.436;6.972;2022-09-14T00:35:12;18.30;99.90
2012;DHT22;1009;51.436;6.972;2022-09-14T00:37:40;18.20;99.90
2012;DHT22;1009;51.436;6.972;2022-09-14T00:40:08;18.20;99.90
2012;DHT22;1009;51.436;6.972;2022-09-14T00:42:37;18.10;99.90
2012;DHT22;1009;51.436;6.972;2022-09-14T00:45:06;18.20;99.90
2012;DHT22;1009;51.436;6.972;2022-09-14T00:47:34;18.10;99.90
2012;DHT22;1009;51.436;6.972;2022-09-14T00:50:02;18.00;99.90
2012;DHT22;1009;51.436;6.972;2022-09-14T00:52:32;17.90;99.90
2012;DHT22;1009;51.436;6.972;2022-09-14T00:55:03;17.90;99.90
2012;DHT22;1009;51.436;6.972;2022-09-14T00:57:34;17.90;99.90
2012;DHT22;1009;51.436;6.972;2022-09-14T01:00:03;18.00;99.90
2012;DHT22;1009;51.436;6.972;2022-09-14T01:02:32;18.00;99.90
2012;DHT22;1009;51.436;6.972;2022-09-14T01:04:59;18.10;99.90
2012;DHT22;1009;51.436;6.972;2022-09-14T01:07:35;18.20;99.90
2012;DHT22;1009;51.436;6.972;2022-09-14T01:10:15;18.20;99.90
2012;DHT22;1009;51.436;6.972;2022-09-14T01:12:50;18.20;99.90
2012;DHT22;1009;51.436;6.972;2022-09-14T01:15:23;18.10;99.90
2012;DHT22;1009;51.436;6.972;2022-09-14T01:17:55;18.10;99.90
2012;DHT22;1009;51.436;6.972;2022-09-14T01:20:26;18.20;99.90
2012;DHT22;1009;51.436;6.972;2022-09-14T01:23:02;18.10;99.90
2012;DHT22;1009;51.436;6.972;2022-09-14T01:28:46;17.80;99.90
2012;DHT22;1009;51.436;6.972;2022-09-14T01:31:20;17.70;99.90
2012;DHT22;1009;51.436;6.972;2022-09-14T01:33:54;17.70;99.90
2012;DHT22;1009;51.436;6.972;2022-09-14T01:36:23;17.70;99.90
2012;DHT22;1009;51.436;6.972;2022-09-14T01:38:53;17.60;99.90
2012;DHT22;1009;51.436;6.972;2022-09-14T01:41:24;17.50;99.90
2012;DHT22;1009;51.436;6.972;2022-09-14T01:43:58;17.60;99.90
2012;DHT22;1009;51.436;6.972;2022-09-14T01:46:33;17.40;99.90
2012;DHT22;1009;51.436;6.972;2022-09-14T01:49:08;17.30;99.90
2012;DHT22;1009;51.436;6.972;2022-09-14T01:51:40;17.40;99.90
2012;DHT22;1009;51.436;6.972;2022-09-14T01:54:12;17.30;99.90
2012;DHT22;1009;51.436;6.972;2022-09-14T01:56:46;17.30;99.90
2012;DHT22;1009;51.436;6.972;2022-09-14T01:59:19;17.30;99.90
2012;DHT22;1009;51.436;6.972;2022-09-14T02:01:49;17.10;99.90
2012;DHT22;1009;51.436;6.972;2022-09-14T02:04:27;17.00;99.90
2012;DHT22;1009;51.436;6.972;2022-09-14T02:06:56;17.00;99.90
2012;DHT22;1009;51.436;6.972;2022-09-14T02:09:23;17.20;99.90
2012;DHT22;1009;51.436;6.972;2022-09-14T02:11:52;17.30;99.90
2012;DHT22;1009;51.436;6.972;2022-09-14T02:14:21;17.30;99.90
2012;DHT22;1009;51.436;6.972;2022-09-14T02:16:49;17.30;99.90
2012;DHT22;1009;51.436;6.972;2022-09-14T02:19:16;17.20;99.90
2012;DHT22;1009;51.436;6.972;2022-09-14T02:21:43;17.20;99.90
2012;DHT22;1009;51.436;6.972;2022-09-14T02:24:10;17.20;99.90
2012;DHT22;1009;51.436;6.972;2022-09-14T02:26:37;17.30;99.90
2012;DHT22;1009;51.436;6.972;2022-09-14T02:29:05;17.20;99.90
2012;DHT22;1009;51.436;6.972;2022-09-14T02:31:44;17.20;99.90
2012;DHT22;1009;51.436;6.972;2022-09-14T02:34:21;17.20;99.90
2012;DHT22;1009;51.436;6.972;2022-09-14T02:36:53;17.10;99.90
2012;DHT22;1009;51.436;6.972;2022-09-14T02:39:29;17.00;99.90
2012;DHT22;1009;51.436;6.972;2022-09-14T02:42:02;17.10;99.90
2012;DHT22;1009;51.436;6.972;2022-09-14T02:44:37;17.20;99.90
2012;DHT22;1009;51.436;6.972;2022-09-14T02:47:13;17.20;99.90
2012;DHT22;1009;51.436;6.972;2022-09-14T02:49:45;17.20;99.90
2012;DHT22;1009;51.436;6.972;2022-09-14T02:52:15;17.30;99.90
2012;DHT22;1009;51.436;6.972;2022-09-14T02:54:49;17.30;99.90
2012;DHT22;1009;51.436;6.972;2022-09-14T02:57:17;17.30;99.90
2012;DHT22;1009;51.436;6.972;2022-09-14T02:59:44;17.30;99.90
2012;DHT22;1009;51.436;6.972;2022-09-14T03:02:12;17.30;99.90
2012;DHT22;1009;51.436;6.972;2022-09-14T03:04:39;17.20;99.90
2012;DHT22;1009;51.436;6.972;2022-09-14T03:07:06;17.30;99.90
2012;DHT22;1009;51.436;6.972;2022-09-14T03:09:33;17.30;99.90
2012;DHT22;1009;51.436;6.972;2022-09-14T03:12:00;17.30;99.90
2012;DHT22;1009;51.436;6.972;2022-09-14T03:14:27;17.30;99.90
2012;DHT22;1009;51.436;6.972;2022-09-14T03:16:54;17.30;99.90
2012;DHT22;1009;51.436;6.972;2022-09-14T03:19:22;17.30;99.90
2012;DHT22;1009;51.436;6.972;2022-09-14T03:21:48;17.20;99.90
2012;DHT22;1009;51.436;6.972;2022-09-14T03:24:15;17.20;99.90
2012;DHT22;1009;51.436;6.972;2022-09-14T03:26:42;17.10;99.90
2012;DHT22;1009;51.436;6.972;2022-09-14T03:29:11;17.10;99.90
2012;DHT22;1009;51.436;6.972;2022-09-14T03:31:38;17.10;99.90
2012;DHT22;1009;51.436;6.972;2022-09-14T03:34:04;17.20;99.90
2012;DHT22;1009;51.436;6.972;2022-09-14T03:36:33;17.20;99.90
2012;DHT22;1009;51.436;6.972;2022-09-14T03:39:00;17.20;99.90
2012;DHT22;1009;51.436;6.972;2022-09-14T03:41:28;17.10;99.90
2012;DHT22;1009;51.436;6.972;2022-09-14T03:43:55;17.00;99.90
2012;DHT22;1009;51.436;6.972;2022-09-14T03:46:23;16.90;99.90
2012;DHT22;1009;51.436;6.972;2022-09-14T03:48:51;16.80;99.90
2012;DHT22;1009;51.436;6.972;2022-09-14T03:51:19;16.80;99.90
2012;DHT22;1009;51.436;6.972;2022-09-14T03:53:47;16.80;99.90
2012;DHT22;1009;51.436;6.972;2022-09-14T03:56:16;16.80;99.90
2012;DHT22;1009;51.436;6.972;2022-09-14T03:58:44;16.90;99.90
2012;DHT22;1009;51.436;6.972;2022-09-14T04:01:14;16.80;99.90
2012;DHT22;1009;51.436;6.972;2022-09-14T04:03:42;16.80;99.90
2012;DHT22;1009;51.436;6.972;2022-09-14T04:06:09;16.80;99.90
2012;DHT22;1009;51.436;6.972;2022-09-14T04:08:38;16.70;99.90
2012;DHT22;1009;51.436;6.972;2022-09-14T04:11:08;16.80;99.90
2012;DHT22;1009;51.436;6.972;2022-09-14T04:13:35;16.70;99.90
2012;DHT22;1009;51.436;6.972;2022-09-14T04:16:03;16.70;99.90
2012;DHT22;1009;51.436;6.972;2022-09-14T04:18:30;16.70;99.90
2012;DHT22;1009;51.436;6.972;2022-09-14T04:20:58;16.70;99.90
2012;DHT22;1009;51.436;6.972;2022-09-14T04:23:25;16.80;99.90
2012;DHT22;1009;51.436;6.972;2022-09-14T04:25:53;16.70;99.90
2012;DHT22;1009;51.436;6.972;2022-09-14T04:28:22;16.80;99.90
2012;DHT22;1009;51.436;6.972;2022-09-14T04:30:56;16.80;99.90
2012;DHT22;1009;51.436;6.972;2022-09-14T04:33:24;16.80;99.90
2012;DHT22;1009;51.436;6.972;2022-09-14T04:35:58;16.80;99.90
2012;DHT22;1009;51.436;6.972;2022-09-14T04:38:26;16.90;99.90
2012;DHT22;1009;51.436;6.972;2022-09-14T04:40:54;16.90;99.90
2012;DHT22;1009;51.436;6.972;2022-09-14T04:43:22;16.80;99.90
2012;DHT22;1009;51.436;6.972;2022-09-14T04:45:50;16.80;99.90
2012;DHT22;1009;51.436;6.972;2022-09-14T04:48:17;16.80;99.90
2012;DHT22;1009;51.436;6.972;2022-09-14T04:50:44;16.90;99.90
2012;DHT22;1009;51.436;6.972;2022-09-14T04:53:11;16.80;99.90
2012;DHT22;1009;51.436;6.972;2022-09-14T04:55:38;16.90;99.90
2012;DHT22;1009;51.436;6.972;2022-09-14T04:58:05;16.80;99.90
2012;DHT22;1009;51.436;6.972;2022-09-14T05:00:34;16.80;99.90
2012;DHT22;1009;51.436;6.972;2022-09-14T05:03:02;16.80;99.90
2012;DHT22;1009;51.436;6.972;2022-09-14T05:05:29;16.80;99.90
2012;DHT22;1009;51.436;6.972;2022-09-14T05:07:56;16.70;99.90
2012;DHT22;1009;51.436;6.972;2022-09-14T05:10:23;16.70;99.90
2012;DHT22;1009;51.436;6.972;2022-09-14T05:12:49;16.60;99.90
2012;DHT22;1009;51.436;6.972;2022-09-14T05:15:16;16.50;99.90
2012;DHT22;1009;51.436;6.972;2022-09-14T05:17:44;16.50;99.90
2012;DHT22;1009;51.436;6.972;2022-09-14T05:20:11;16.60;99.90
2012;DHT22;1009;51.436;6.972;2022-09-14T05:22:38;16.60;99.90
2012;DHT22;1009;51.436;6.972;2022-09-14T05:25:05;16.60;99.90
2012;DHT22;1009;51.436;6.972;2022-09-14T05:27:32;16.60;99.90
2012;DHT22;1009;51.436;6.972;2022-09-14T05:29:59;16.60;99.90
2012;DHT22;1009;51.436;6.972;2022-09-14T05:32:26;16.60;99.90
2012;DHT22;1009;51.436;6.972;2022-09-14T05:34:54;16.60;99.90
2012;DHT22;1009;51.436;6.972;2022-09-14T05:37:21;16.50;99.90
2012;DHT22;1009;51.436;6.972;2022-09-14T05:39:47;16.40;99.90
2012;DHT22;1009;51.436;6.972;2022-09-14T05:42:14;16.50;99.90
2012;DHT22;1009;51.436;6.972;2022-09-14T05:44:41;16.40;99.90
2012;DHT22;1009;51.436;6.972;2022-09-14T05:47:07;16.30;99.90
2012;DHT22;1009;51.436;6.972;2022-09-14T05:49:34;16.20;99.90
2012;DHT22;1009;51.436;6.972;2022-09-14T05:52:03;16.20;99.90
2012;DHT22;1009;51.436;6.972;2022-09-14T05:54:30;16.10;99.90
2012;DHT22;1009;51.436;6.972;2022-09-14T05:56:56;16.10;99.90
2012;DHT22;1009;51.436;6.972;2022-09-14T05:59:23;15.90;99.90
2012;DHT22;1009;51.436;6.972;2022-09-14T06:01:50;15.90;99.90
2012;DHT22;1009;51.436;6.972;2022-09-14T06:04:17;15.70;99.90
2012;DHT22;1009;51.436;6.972;2022-09-14T06:06:43;15.70;99.90
2012;DHT22;1009;51.436;6.972;2022-09-14T06:09:12;15.70;99.90
2012;DHT22;1009;51.436;6.972;2022-09-14T06:11:39;15.60;99.90
2012;DHT22;1009;51.436;6.972;2022-09-14T06:14:06;15.70;99.90
2012;DHT22;1009;51.436;6.972;2022-09-14T06:16:33;15.60;99.90
2012;DHT22;1009;51.436;6.972;2022-09-14T06:19:00;15.60;99.90
2012;DHT22;1009;51.436;6.972;2022-09-14T06:21:28;15.60;99.90
2012;DHT22;1009;51.436;6.972;2022-09-14T06:23:56;15.60;99.90
2012;DHT22;1009;51.436;6.972;2022-09-14T06:26:24;15.70;99.90
2012;DHT22;1009;51.436;6.972;2022-09-14T06:28:51;15.80;99.90
2012;DHT22;1009;51.436;6.972;2022-09-14T06:31:18;15.80;99.90
2012;DHT22;1009;51.436;6.972;2022-09-14T06:33:47;15.80;99.90
2012;DHT22;1009;51.436;6.972;2022-09-14T06:36:16;15.90;99.90
2012;DHT22;1009;51.436;6.972;2022-09-14T06:38:44;15.80;99.90
2012;DHT22;1009;51.436;6.972;2022-09-14T06:41:13;15.80;99.90
2012;DHT22;1009;51.436;6.972;2022-09-14T06:43:44;15.70;99.90
2012;DHT22;1009;51.436;6.972;2022-09-14T06:46:13;15.70;99.90
2012;DHT22;1009;51.436;6.972;2022-09-14T06:48:42;15.60;99.90
2012;DHT22;1009;51.436;6.972;2022-09-14T06:51:14;15.60;99.90
2012;DHT22;1009;51.436;6.972;2022-09-14T06:53:42;15.50;99.90
2012;DHT22;1009;51.436;6.972;2022-09-14T06:56:09;15.60;99.90
2012;DHT22;1009;51.436;6.972;2022-09-14T06:58:36;15.60;99.90
2012;DHT22;1009;51.436;6.972;2022-09-14T07:01:05;15.60;99.90
2012;DHT22;1009;51.436;6.972;2022-09-14T07:03:35;15.70;99.90
2012;DHT22;1009;51.436;6.972;2022-09-14T07:06:03;15.70;99.90
2012;DHT22;1009;51.436;6.972;2022-09-14T07:08:31;15.60;99.90
2012;DHT22;1009;51.436;6.972;2022-09-14T07:10:59;15.60;99.90
2012;DHT22;1009;51.436;6.972;2022-09-14T07:13:27;15.70;99.90
2012;DHT22;1009;51.436;6.972;2022-09-14T07:15:54;15.70;99.90
2012;DHT22;1009;51.436;6.972;2022-09-14T07:18:22;15.60;99.90
2012;DHT22;1009;51.436;6.972;2022-09-14T07:20:52;15.50;99.90
2012;DHT22;1009;51.436;6.972;2022-09-14T07:23:19;15.40;99.90
2012;DHT22;1009;51.436;6.972;2022-09-14T07:25:47;15.50;99.90
2012;DHT22;1009;51.436;6.972;2022-09-14T07:28:13;15.40;99.90
2012;DHT22;1009;51.436;6.972;2022-09-14T07:30:40;15.40;99.90
2012;DHT22;1009;51.436;6.972;2022-09-14T07:33:07;15.50;99.90
2012;DHT22;1009;51.436;6.972;2022-09-14T07:35:35;15.40;99.90
2012;DHT22;1009;51.436;6.972;2022-09-14T07:38:02;15.50;99.90
2012;DHT22;1009;51.436;6.972;2022-09-14T07:40:29;15.60;99.90
2012;DHT22;1009;51.436;6.972;2022-09-14T07:42:56;15.50;99.90
2012;DHT22;1009;51.436;6.972;2022-09-14T07:45:23;15.50;99.90
2012;DHT22;1009;51.436;6.972;2022-09-14T07:47:49;15.40;99.90
2012;DHT22;1009;51.436;6.972;2022-09-14T07:50:16;15.40;99.90
2012;DHT22;1009;51.436;6.972;2022-09-14T07:52:44;15.40;99.90
2012;DHT22;1009;51.436;6.972;2022-09-14T07:55:14;15.30;99.90
2012;DHT22;1009;51.436;6.972;2022-09-14T07:57:41;15.30;99.90
2012;DHT22;1009;51.436;6.972;2022-09-14T08:00:09;15.20;99.90
2012;DHT22;1009;51.436;6.972;2022-09-14T08:02:36;15.20;99.90
2012;DHT22;1009;51.436;6.972;2022-09-14T08:05:03;15.10;99.90
2012;DHT22;1009;51.436;6.972;2022-09-14T08:07:30;15.10;99.90
2012;DHT22;1009;51.436;6.972;2022-09-14T08:09:58;15.20;99.90
2012;DHT22;1009;51.436;6.972;2022-09-14T08:12:26;15.30;99.90
2012;DHT22;1009;51.436;6.972;2022-09-14T08:14:52;15.30;99.90
2012;DHT22;1009;51.436;6.972;2022-09-14T08:17:19;15.30;99.90
2012;DHT22;1009;51.436;6.972;2022-09-14T08:19:48;15.30;99.90
2012;DHT22;1009;51.436;6.972;2022-09-14T08:22:16;15.30;99.90
2012;DHT22;1009;51.436;6.972;2022-09-14T08:24:43;15.30;99.90
2012;DHT22;1009;51.436;6.972;2022-09-14T08:27:11;15.40;99.90
2012;DHT22;1009;51.436;6.972;2022-09-14T08:29:38;15.40;99.90
2012;DHT22;1009;51.436;6.972;2022-09-14T08:32:05;15.30;99.90
2012;DHT22;1009;51.436;6.972;2022-09-14T08:34:31;15.30;99.90
2012;DHT22;1009;51.436;6.972;2022-09-14T08:36:58;15.30;99.90
2012;DHT22;1009;51.436;6.972;2022-09-14T08:39:25;15.30;99.90
2012;DHT22;1009;51.436;6.972;2022-09-14T08:41:54;15.40;99.90
2012;DHT22;1009;51.436;6.972;2022-09-14T08:44:28;15.50;99.90
2012;DHT22;1009;51.436;6.972;2022-09-14T08:46:59;15.40;99.90
2012;DHT22;1009;51.436;6.972;2022-09-14T08:49:38;15.40;99.90
2012;DHT22;1009;51.436;6.972;2022-09-14T08:52:12;15.40;99.90
2012;DHT22;1009;51.436;6.972;2022-09-14T08:54:39;15.30;99.90
2012;DHT22;1009;51.436;6.972;2022-09-14T08:57:11;15.30;99.90
2012;DHT22;1009;51.436;6.972;2022-09-14T08:59:48;15.30;99.90
2012;DHT22;1009;51.436;6.972;2022-09-14T09:02:42;15.30;99.90
2012;DHT22;1009;51.436;6.972;2022-09-14T09:05:24;15.40;99.90
2012;DHT22;1009;51.436;6.972;2022-09-14T09:07:58;15.50;99.90
2012;DHT22;1009;51.436;6.972;2022-09-14T09:10:28;15.40;99.90
2012;DHT22;1009;51.436;6.972;2022-09-14T09:12:58;15.40;99.90
2012;DHT22;1009;51.436;6.972;2022-09-14T09:15:30;15.40;99.90
2012;DHT22;1009;51.436;6.972;2022-09-14T09:18:01;15.40;99.90
2012;DHT22;1009;51.436;6.972;2022-09-14T09:20:33;15.30;99.90
2012;DHT22;1009;51.436;6.972;2022-09-14T09:23:07;15.40;99.90
2012;DHT22;1009;51.436;6.972;2022-09-14T09:25:47;15.40;99.90
2012;DHT22;1009;51.436;6.972;2022-09-14T09:28:16;15.50;99.90
2012;DHT22;1009;51.436;6.972;2022-09-14T09:30:45;15.50;99.90
2012;DHT22;1009;51.436;6.972;2022-09-14T09:33:15;15.60;99.90
2012;DHT22;1009;51.436;6.972;2022-09-14T09:35:43;15.50;99.90
2012;DHT22;1009;51.436;6.972;2022-09-14T09:38:13;15.60;99.90
2012;DHT22;1009;51.436;6.972;2022-09-14T09:40:44;15.60;99.90
2012;DHT22;1009;51.436;6.972;2022-09-14T09:43:14;15.60;99.90
2012;DHT22;1009;51.436;6.972;2022-09-14T09:45:54;15.60;99.90
2012;DHT22;1009;51.436;6.972;2022-09-14T09:48:23;15.70;99.90
2012;DHT22;1009;51.436;6.972;2022-09-14T09:53:45;15.60;99.90
2012;DHT22;1009;51.436;6.972;2022-09-14T09:56:17;15.70;99.90
2012;DHT22;1009;51.436;6.972;2022-09-14T09:58:44;15.90;99.90
2012;DHT22;1009;51.436;6.972;2022-09-14T10:01:20;15.90;99.90
2012;DHT22;1009;51.436;6.972;2022-09-14T10:04:00;15.80;99.90
2012;DHT22;1009;51.436;6.972;2022-09-14T10:06:28;15.80;99.90
2012;DHT22;1009;51.436;6.972;2022-09-14T10:08:56;15.70;99.90
2012;DHT22;1009;51.436;6.972;2022-09-14T10:11:29;15.70;99.90
2012;DHT22;1009;51.436;6.972;2022-09-14T10:13:57;15.60;99.90
2012;DHT22;1009;51.436;6.972;2022-09-14T10:16:33;15.60;99.90
2012;DHT22;1009;51.436;6.972;2022-09-14T10:19:02;15.70;99.90
2012;DHT22;1009;51.436;6.972;2022-09-14T10:21:29;15.70;99.90
2012;DHT22;1009;51.436;6.972;2022-09-14T10:24:05;15.80;99.90
2012;DHT22;1009;51.436;6.972;2022-09-14T10:26:34;15.80;99.90
2012;DHT22;1009;51.436;6.972;2022-09-14T10:29:30;15.80;99.90
2012;DHT22;1009;51.436;6.972;2022-09-14T10:32:06;15.90;99.90
2012;DHT22;1009;51.436;6.972;2022-09-14T10:34:37;15.90;99.90
2012;DHT22;1009;51.436;6.972;2022-09-14T10:37:15;15.90;99.90
2012;DHT22;1009;51.436;6.972;2022-09-14T10:39:46;15.90;99.90
2012;DHT22;1009;51.436;6.972;2022-09-14T10:42:20;15.90;99.90
2012;DHT22;1009;51.436;6.972;2022-09-14T10:45:14;15.90;99.90
2012;DHT22;1009;51.436;6.972;2022-09-14T10:48:00;15.70;99.90
2012;DHT22;1009;51.436;6.972;2022-09-14T10:50:37;15.80;99.90
2012;DHT22;1009;51.436;6.972;2022-09-14T10:53:14;15.70;99.90
2012;DHT22;1009;51.436;6.972;2022-09-14T10:55:50;15.70;99.90
2012;DHT22;1009;51.436;6.972;2022-09-14T10:58:35;15.70;99.90
2012;DHT22;1009;51.436;6.972;2022-09-14T11:01:25;15.60;99.90
2012;DHT22;1009;51.436;6.972;2022-09-14T11:04:03;15.60;99.90
2012;DHT22;1009;51.436;6.972;2022-09-14T11:06:43;15.60;99.90
2012;DHT22;1009;51.436;6.972;2022-09-14T11:09:18;15.60;99.90
2012;DHT22;1009;51.436;6.972;2022-09-14T11:11:54;15.60;99.90
2012;DHT22;1009;51.436;6.972;2022-09-14T11:14:42;15.50;99.90
2012;DHT22;1009;51.436;6.972;2022-09-14T11:20:15;15.50;99.90
2012;DHT22;1009;51.436;6.972;2022-09-14T11:22:51;15.50;99.90
2012;DHT22;1009;51.436;6.972;2022-09-14T11:25:22;15.60;99.90
2012;DHT22;1009;51.436;6.972;2022-09-14T11:27:52;15.60;99.90
2012;DHT22;1009;51.436;6.972;2022-09-14T11:30:21;15.60;99.90
2012;DHT22;1009;51.436;6.972;2022-09-14T11:32:51;15.60;99.90
2012;DHT22;1009;51.436;6.972;2022-09-14T11:35:24;15.50;99.90
2012;DHT22;1009;51.436;6.972;2022-09-14T11:37:55;15.50;99.90
2012;DHT22;1009;51.436;6.972;2022-09-14T11:40:28;15.60;99.90
2012;DHT22;1009;51.436;6.972;2022-09-14T11:42:58;15.40;99.90
2012;DHT22;1009;51.436;6.972;2022-09-14T11:45:29;15.20;99.90
2012;DHT22;1009;51.436;6.972;2022-09-14T11:48:03;15.00;99.90
2012;DHT22;1009;51.436;6.972;2022-09-14T11:50:35;15.00;99.90
2012;DHT22;1009;51.436;6.972;2022-09-14T11:53:09;15.00;99.90
2012;DHT22;1009;51.436;6.972;2022-09-14T11:55:36;15.00;99.90
2012;DHT22;1009;51.436;6.972;2022-09-14T11:58:10;15.10;99.90
2012;DHT22;1009;51.436;6.972;2022-09-14T12:01:23;15.00;99.90
2012;DHT22;1009;51.436;6.972;2022-09-14T12:06:51;15.00;99.90
2012;DHT22;1009;51.436;6.972;2022-09-14T12:09:45;15.00;99.90
2012;DHT22;1009;51.436;6.972;2022-09-14T12:12:31;14.90;99.90
2012;DHT22;1009;51.436;6.972;2022-09-14T12:15:11;14.70;99.90
2012;DHT22;1009;51.436;6.972;2022-09-14T12:17:40;14.70;99.90
2012;DHT22;1009;51.436;6.972;2022-09-14T12:23:21;14.80;99.90
2012;DHT22;1009;51.436;6.972;2022-09-14T12:25:57;15.00;99.90
2012;DHT22;1009;51.436;6.972;2022-09-14T12:28:36;15.00;99.90
2012;DHT22;1009;51.436;6.972;2022-09-14T12:31:12;14.90;99.90
2012;DHT22;1009;51.436;6.972;2022-09-14T12:34:11;14.90;99.90
2012;DHT22;1009;51.436;6.972;2022-09-14T12:37:30;15.00;99.90
2012;DHT22;1009;51.436;6.972;2022-09-14T12:42:54;15.00;99.90
2012;DHT22;1009;51.436;6.972;2022-09-14T12:45:46;14.80;99.90
2012;DHT22;1009;51.436;6.972;2022-09-14T12:51:22;14.80;99.90
2012;DHT22;1009;51.436;6.972;2022-09-14T12:53:59;14.80;99.90
2012;DHT22;1009;51.436;6.972;2022-09-14T12:56:31;14.90;99.90
2012;DHT22;1009;51.436;6.972;2022-09-14T12:59:04;14.80;99.90
2012;DHT22;1009;51.436;6.972;2022-09-14T13:01:38;14.90;99.90
2012;DHT22;1009;51.436;6.972;2022-09-14T13:04:12;15.00;99.90
2012;DHT22;1009;51.436;6.972;2022-09-14T13:06:42;15.10;99.90
2012;DHT22;1009;51.436;6.972;2022-09-14T13:09:16;15.00;99.90
2012;DHT22;1009;51.436;6.972;2022-09-14T13:11:46;15.00;99.90
2012;DHT22;1009;51.436;6.972;2022-09-14T13:14:17;15.00;99.90
2012;DHT22;1009;51.436;6.972;2022-09-14T13:16:46;15.00;99.90
2012;DHT22;1009;51.436;6.972;2022-09-14T13:19:21;15.10;99.90
2012;DHT22;1009;51.436;6.972;2022-09-14T13:21:51;15.10;99.90
2012;DHT22;1009;51.436;6.972;2022-09-14T13:24:24;15.10;99.90
2012;DHT22;1009;51.436;6.972;2022-09-14T13:26:52;15.20;99.90
2012;DHT22;1009;51.436;6.972;2022-09-14T13:29:20;15.20;99.90
2012;DHT22;1009;51.436;6.972;2022-09-14T13:31:49;15.20;99.90
2012;DHT22;1009;51.436;6.972;2022-09-14T13:34:19;15.10;99.90
2012;DHT22;1009;51.436;6.972;2022-09-14T13:36:47;15.10;99.90
2012;DHT22;1009;51.436;6.972;2022-09-14T13:39:25;15.20;99.90
2012;DHT22;1009;51.436;6.972;2022-09-14T13:41:52;15.10;99.90
2012;DHT22;1009;51.436;6.972;2022-09-14T13:44:26;15.00;99.90
2012;DHT22;1009;51.436;6.972;2022-09-14T13:46:54;14.90;99.90
2012;DHT22;1009;51.436;6.972;2022-09-14T13:49:22;15.00;99.90
2012;DHT22;1009;51.436;6.972;2022-09-14T13:51:49;15.00;99.90
2012;DHT22;1009;51.436;6.972;2022-09-14T13:54:24;15.00;99.90
2012;DHT22;1009;51.436;6.972;2022-09-14T13:57:10;15.00;99.90
2012;DHT22;1009;51.436;6.972;2022-09-14T14:00:05;15.00;99.90
2012;DHT22;1009;51.436;6.972;2022-09-14T14:02:44;15.10;99.90
2012;DHT22;1009;51.436;6.972;2022-09-14T14:05:21;15.20;99.90
2012;DHT22;1009;51.436;6.972;2022-09-14T14:07:49;15.20;99.90
2012;DHT22;1009;51.436;6.972;2022-09-14T14:10:26;15.20;99.90
2012;DHT22;1009;51.436;6.972;2022-09-14T14:12:54;15.20;99.90
2012;DHT22;1009;51.436;6.972;2022-09-14T14:15:35;15.20;99.90
2012;DHT22;1009;51.436;6.972;2022-09-14T14:18:38;15.30;99.90
2012;DHT22;1009;51.436;6.972;2022-09-14T14:21:13;15.20;99.90
2012;DHT22;1009;51.436;6.972;2022-09-14T14:23:41;15.20;99.90
2012;DHT22;1009;51.436;6.972;2022-09-14T14:26:10;15.20;99.90
2012;DHT22;1009;51.436;6.972;2022-09-14T14:28:39;15.30;99.90
2012;DHT22;1009;51.436;6.972;2022-09-14T14:31:12;15.30;99.90
2012;DHT22;1009;51.436;6.972;2022-09-14T14:33:44;15.40;99.90
2012;DHT22;1009;51.436;6.972;2022-09-14T14:36:11;15.40;99.90
2012;DHT22;1009;51.436;6.972;2022-09-14T14:38:39;15.50;99.90
2012;DHT22;1009;51.436;6.972;2022-09-14T14:41:11;15.60;99.90
2012;DHT22;1009;51.436;6.972;2022-09-14T14:43:38;15.70;99.90
2012;DHT22;1009;51.436;6.972;2022-09-14T14:46:08;15.70;99.90
2012;DHT22;1009;51.436;6.972;2022-09-14T14:48:35;15.60;99.90
2012;DHT22;1009;51.436;6.972;2022-09-14T14:51:01;15.60;99.90
2012;DHT22;1009;51.436;6.972;2022-09-14T14:53:28;15.60;99.90
2012;DHT22;1009;51.436;6.972;2022-09-14T14:55:55;15.60;99.90
2012;DHT22;1009;51.436;6.972;2022-09-14T14:58:23;15.70;99.90
2012;DHT22;1009;51.436;6.972;2022-09-14T15:00:51;15.80;99.90
2012;DHT22;1009;51.436;6.972;2022-09-14T15:03:20;15.80;99.90
2012;DHT22;1009;51.436;6.972;2022-09-14T15:05:48;15.80;99.90
2012;DHT22;1009;51.436;6.972;2022-09-14T15:08:16;15.70;99.90
2012;DHT22;1009;51.436;6.972;2022-09-14T15:10:44;15.80;99.90
2012;DHT22;1009;51.436;6.972;2022-09-14T15:13:13;15.70;99.90
2012;DHT22;1009;51.436;6.972;2022-09-14T15:15:40;15.70;99.90
2012;DHT22;1009;51.436;6.972;2022-09-14T15:18:08;15.50;99.90
2012;DHT22;1009;51.436;6.972;2022-09-14T15:20:36;15.40;99.90
2012;DHT22;1009;51.436;6.972;2022-09-14T15:23:04;15.50;99.90
2012;DHT22;1009;51.436;6.972;2022-09-14T15:25:31;15.60;99.90
2012;DHT22;1009;51.436;6.972;2022-09-14T15:27:58;15.80;99.90
2012;DHT22;1009;51.436;6.972;2022-09-14T15:30:25;15.80;99.90
2012;DHT22;1009;51.436;6.972;2022-09-14T15:32:51;15.90;99.90
2012;DHT22;1009;51.436;6.972;2022-09-14T15:35:18;15.90;99.90
2012;DHT22;1009;51.436;6.972;2022-09-14T15:37:46;15.90;99.90
2012;DHT22;1009;51.436;6.972;2022-09-14T15:40:14;15.90;99.90
2012;DHT22;1009;51.436;6.972;2022-09-14T15:42:41;15.80;99.90
2012;DHT22;1009;51.436;6.972;2022-09-14T15:45:08;15.70;99.90
2012;DHT22;1009;51.436;6.972;2022-09-14T15:47:35;15.50;99.90
2012;DHT22;1009;51.436;6.972;2022-09-14T15:50:02;15.60;99.90
2012;DHT22;1009;51.436;6.972;2022-09-14T15:52:30;15.50;99.90
2012;DHT22;1009;51.436;6.972;2022-09-14T15:54:58;15.40;99.90
2012;DHT22;1009;51.436;6.972;2022-09-14T15:57:26;15.40;99.90
2012;DHT22;1009;51.436;6.972;2022-09-14T15:59:53;15.30;99.90
2012;DHT22;1009;51.436;6.972;2022-09-14T16:02:20;15.30;99.90
2012;DHT22;1009;51.436;6.972;2022-09-14T16:04:47;15.20;99.90
2012;DHT22;1009;51.436;6.972;2022-09-14T16:07:14;15.20;99.90
2012;DHT22;1009;51.436;6.972;2022-09-14T16:09:41;15.20;99.90
2012;DHT22;1009;51.436;6.972;2022-09-14T16:12:11;15.20;99.90
2012;DHT22;1009;51.436;6.972;2022-09-14T16:14:38;15.20;99.90
2012;DHT22;1009;51.436;6.972;2022-09-14T16:17:05;15.10;99.90
2012;DHT22;1009;51.436;6.972;2022-09-14T16:19:33;15.10;99.90
2012;DHT22;1009;51.436;6.972;2022-09-14T16:22:00;15.10;99.90
2012;DHT22;1009;51.436;6.972;2022-09-14T16:24:27;15.10;99.90
2012;DHT22;1009;51.436;6.972;2022-09-14T16:26:55;15.20;99.90
2012;DHT22;1009;51.436;6.972;2022-09-14T16:29:24;15.10;99.90
2012;DHT22;1009;51.436;6.972;2022-09-14T16:31:51;15.00;99.90
2012;DHT22;1009;51.436;6.972;2022-09-14T16:34:20;15.00;99.90
2012;DHT22;1009;51.436;6.972;2022-09-14T16:36:47;15.00;99.90
2012;DHT22;1009;51.436;6.972;2022-09-14T16:39:16;15.00;99.90
2012;DHT22;1009;51.436;6.972;2022-09-14T16:41:43;15.00;99.90
2012;DHT22;1009;51.436;6.972;2022-09-14T16:44:12;15.00;99.90